createdAt,value
2023-12-02T00:00:02.849Z,100039.88
2023-12-02T00:02:38.981Z,100039.94
2023-12-02T00:05:06.287Z,100023.59
2023-12-02T00:07:33.497Z,100039.13
2023-12-02T00:10:00.491Z,100032.19
2023-12-02T00:12:27.607Z,100033.03
2023-12-02T00:14:54.927Z,100024.47
2023-12-02T00:17:21.963Z,100027.03
2023-12-02T00:19:49.112Z,100026.25
2023-12-02T00:22:16.576Z,100027.97
2023-12-02T00:24:43.754Z,100026.28
2023-12-02T00:27:10.824Z,100027.13
2023-12-02T00:29:37.937Z,100027.16
2023-12-02T00:32:05.347Z,100027.13
2023-12-02T00:34:32.538Z,100015.91
2023-12-02T00:36:59.445Z,100022.72
2023-12-02T00:39:26.736Z,100009.00
2023-12-02T00:41:53.928Z,100008.16
2023-12-02T00:44:21.459Z,100000.31
2023-12-02T00:46:48.498Z,100006.31
2023-12-02T00:49:15.848Z,100011.53
2023-12-02T00:51:42.861Z,100008.03
2023-12-02T00:54:09.892Z,100012.41
2023-12-02T00:56:37.563Z,100018.47
2023-12-02T00:59:04.483Z,100023.66
2023-12-02T01:01:31.423Z,100020.22
2023-12-02T01:03:59.291Z,100019.38
2023-12-02T01:06:28.678Z,100015.09
2023-12-02T01:08:55.888Z,100013.38
2023-12-02T01:11:23.082Z,100021.13
2023-12-02T01:13:50.361Z,100015.94
2023-12-02T01:16:17.408Z,100013.41
2023-12-02T01:18:44.954Z,100016.00
2023-12-02T01:21:11.882Z,100014.28
2023-12-02T01:23:41.862Z,100028.91
2023-12-02T01:26:09.195Z,100033.22
2023-12-02T01:28:46.706Z,100032.34
2023-12-02T01:31:13.800Z,100034.94
2023-12-02T01:33:40.968Z,100039.22
2023-12-02T01:36:12.671Z,100033.25
2023-12-02T01:38:44.268Z,100023.78
2023-12-02T01:41:11.559Z,100031.50
2023-12-02T01:43:41.772Z,100029.81
2023-12-02T01:46:10.704Z,100037.56
2023-12-02T01:48:40.627Z,100034.91
2023-12-02T01:51:08.476Z,100031.47
2023-12-02T01:53:36.173Z,100025.41
2023-12-02T01:56:06.403Z,100015.06
2023-12-02T01:58:33.997Z,100014.28
2023-12-02T02:01:05.158Z,100019.41
2023-12-02T02:03:33.666Z,100028.81
2023-12-02T02:06:01.259Z,100026.28
2023-12-02T02:08:28.290Z,100032.28
2023-12-02T02:10:59.408Z,100036.63
2023-12-02T02:13:26.900Z,100021.09
2023-12-02T02:15:53.868Z,100025.38
2023-12-02T02:18:21.375Z,100028.88
2023-12-02T02:20:53.773Z,100031.41
2023-12-02T02:23:22.027Z,100027.97
2023-12-02T02:25:55.066Z,100040.91
2023-12-02T02:28:27.860Z,100034.81
2023-12-02T02:30:55.602Z,100032.19
2023-12-02T02:33:23.063Z,100033.03
2023-12-02T02:35:50.041Z,100018.44
2023-12-02T02:38:17.012Z,100018.50
2023-12-02T02:40:44.010Z,100024.47
2023-12-02T02:43:11.425Z,100025.31
2023-12-02T02:45:39.251Z,100022.00
2023-12-02T02:48:06.550Z,100012.47
2023-12-02T02:50:34.107Z,100015.06
2023-12-02T02:53:01.175Z,100004.75
2023-12-02T02:55:28.349Z,100007.41
2023-12-02T02:57:55.577Z,100003.09
2023-12-02T03:00:28.428Z,99994.44
2023-12-02T03:02:55.354Z,100002.19
2023-12-02T03:05:25.256Z,99999.66
2023-12-02T03:07:53.998Z,99998.78
2023-12-02T03:10:21.479Z,99999.66
2023-12-02T03:12:49.002Z,100009.19
2023-12-02T03:15:16.068Z,100008.31
2023-12-02T03:17:43.062Z,100010.88
2023-12-02T03:20:10.628Z,100024.66
2023-12-02T03:22:37.778Z,100030.66
2023-12-02T03:25:05.209Z,100035.81
2023-12-02T03:27:32.978Z,100039.28
2023-12-02T03:29:59.925Z,100045.31
2023-12-02T03:32:27.111Z,100047.88
2023-12-02T03:34:54.038Z,100047.03
2023-12-02T03:37:20.938Z,100048.78
2023-12-02T03:39:47.967Z,100054.00
2023-12-02T03:42:14.994Z,100047.94
2023-12-02T03:44:42.158Z,100046.25
2023-12-02T03:47:09.127Z,100041.94
2023-12-02T03:49:36.160Z,100045.38
2023-12-02T03:52:03.211Z,100042.78
2023-12-02T03:54:30.198Z,100037.63
2023-12-02T03:56:57.217Z,100034.19
2023-12-02T03:59:24.256Z,100031.59
2023-12-02T04:01:51.521Z,100037.56
2023-12-02T04:04:19.546Z,100041.91
2023-12-02T04:06:46.644Z,100037.59
2023-12-02T04:09:13.605Z,100051.38
2023-12-02T04:11:40.521Z,100050.50
2023-12-02T04:14:07.942Z,100053.09
2023-12-02T04:16:35.135Z,100052.16
2023-12-02T04:19:02.175Z,100049.66
2023-12-02T04:21:29.228Z,100039.25
2023-12-02T04:23:56.262Z,100040.06
2023-12-02T04:26:23.191Z,100039.25
2023-12-02T04:28:50.146Z,100043.50
2023-12-02T04:31:17.186Z,100027.28
2023-12-02T04:33:44.683Z,100037.63
2023-12-02T04:36:12.147Z,100032.47
2023-12-02T04:38:39.410Z,100027.31
2023-12-02T04:41:07.612Z,100033.31
2023-12-02T04:43:34.879Z,100046.22
2023-12-02T04:46:02.257Z,100056.50
2023-12-02T04:48:29.581Z,100058.13
2023-12-02T04:50:57.402Z,100036.72
2023-12-02T04:53:27.907Z,100037.59
2023-12-02T04:55:54.894Z,100026.44
2023-12-02T04:58:22.554Z,100026.44
2023-12-02T05:00:49.794Z,100029.91
2023-12-02T05:03:19.186Z,100036.75
2023-12-02T05:05:46.340Z,100035.03
2023-12-02T05:08:16.440Z,100039.31
2023-12-02T05:10:46.340Z,100048.81
2023-12-02T05:13:13.364Z,100062.59
2023-12-02T05:15:44.353Z,100059.16
2023-12-02T05:18:14.428Z,100072.91
2023-12-02T05:20:41.581Z,100070.34
2023-12-02T05:23:08.720Z,100059.16
2023-12-02T05:25:38.333Z,100063.41
2023-12-02T05:28:16.191Z,100065.13
2023-12-02T05:30:44.028Z,100061.69
2023-12-02T05:33:11.314Z,100067.69
2023-12-02T05:35:38.353Z,100066.88
2023-12-02T05:38:08.436Z,100065.13
2023-12-02T05:40:35.342Z,100066.84
2023-12-02T05:43:02.277Z,100072.06
2023-12-02T05:45:29.268Z,100072.91
2023-12-02T05:47:59.425Z,100078.94
2023-12-02T05:50:28.596Z,100084.94
2023-12-02T05:52:55.584Z,100094.34
2023-12-02T05:55:22.910Z,100093.47
2023-12-02T05:57:52.192Z,100088.34
2023-12-02T06:00:19.703Z,100090.94
2023-12-02T06:02:46.717Z,100088.31
2023-12-02T06:05:17.975Z,100103.81
2023-12-02T06:07:44.951Z,100099.50
2023-12-02T06:10:13.078Z,100103.81
2023-12-02T06:12:40.079Z,100092.69
2023-12-02T06:15:08.484Z,100092.66
2023-12-02T06:17:36.066Z,100098.66
2023-12-02T06:20:07.500Z,100096.97
2023-12-02T06:22:38.160Z,100096.13
2023-12-02T06:25:09.058Z,100098.69
2023-12-02T06:27:36.326Z,100093.53
2023-12-02T06:30:03.451Z,100097.81
2023-12-02T06:32:35.214Z,100089.22
2023-12-02T06:35:05.852Z,100101.25
2023-12-02T06:37:33.316Z,100107.31
2023-12-02T06:40:02.722Z,100102.13
2023-12-02T06:42:29.862Z,100096.13
2023-12-02T06:44:57.051Z,100089.25
2023-12-02T06:47:23.980Z,100090.94
2023-12-02T06:49:50.826Z,100095.25
2023-12-02T06:52:17.797Z,100097.84
2023-12-02T06:54:44.691Z,100096.97
2023-12-02T06:57:11.787Z,100101.28
2023-12-02T06:59:38.798Z,100112.47
2023-12-02T07:02:05.728Z,100121.03
2023-12-02T07:04:33.539Z,100132.25
2023-12-02T07:07:00.735Z,100113.28
2023-12-02T07:09:27.733Z,100115.88
2023-12-02T07:11:54.976Z,100121.06
2023-12-02T07:14:21.864Z,100121.91
2023-12-02T07:16:48.793Z,100124.50
2023-12-02T07:19:15.843Z,100127.09
2023-12-02T07:21:42.813Z,100123.63
2023-12-02T07:24:10.741Z,100130.56
2023-12-02T07:26:37.986Z,100124.50
2023-12-02T07:29:05.084Z,100141.72
2023-12-02T07:31:31.986Z,100145.16
2023-12-02T07:34:21.790Z,100154.63
2023-12-02T07:36:47.116Z,100148.63
2023-12-02T07:39:16.088Z,100154.66
2023-12-02T07:41:47.265Z,100159.81
2023-12-02T07:44:14.265Z,100152.94
2023-12-02T07:46:41.168Z,100153.81
2023-12-02T07:49:08.165Z,100156.38
2023-12-02T07:51:35.072Z,100155.50
2023-12-02T07:54:02.162Z,100151.19
2023-12-02T07:56:29.021Z,100142.56
2023-12-02T07:58:58.332Z,100149.47
2023-12-02T08:01:26.420Z,100148.63
2023-12-02T08:03:53.456Z,100146.03
2023-12-02T08:06:20.678Z,100140.84
2023-12-02T08:08:48.687Z,100142.59
2023-12-02T08:11:17.176Z,100149.47
2023-12-02T08:13:45.902Z,100147.78
2023-12-02T08:16:13.277Z,100150.34
2023-12-02T08:18:40.233Z,100149.47
2023-12-02T08:21:08.866Z,100151.19
2023-12-02T08:23:36.358Z,100162.38
2023-12-02T08:26:03.324Z,100147.75
2023-12-02T08:28:30.625Z,100166.72
2023-12-02T08:30:57.608Z,100161.53
2023-12-02T08:33:24.472Z,100163.25
2023-12-02T08:35:51.646Z,100166.69
2023-12-02T08:38:18.761Z,100167.56
2023-12-02T08:40:45.701Z,100168.38
2023-12-02T08:43:12.837Z,100174.38
2023-12-02T08:45:40.272Z,100178.66
2023-12-02T08:48:07.585Z,100189.91
2023-12-02T08:50:35.219Z,100189.88
2023-12-02T08:53:02.155Z,100187.28
2023-12-02T08:55:29.384Z,100189.03
2023-12-02T08:57:59.320Z,100183.00
2023-12-02T09:00:26.796Z,100189.94
2023-12-02T09:02:54.040Z,100191.66
2023-12-02T09:05:21.156Z,100198.50
2023-12-02T09:07:48.224Z,100195.00
2023-12-02T09:10:15.553Z,100207.03
2023-12-02T09:12:43.342Z,100207.91
2023-12-02T09:15:36.333Z,100214.84
2023-12-02T09:18:12.837Z,100212.28
2023-12-02T09:20:55.307Z,100208.84
2023-12-02T09:23:22.718Z,100199.28
2023-12-02T09:25:52.457Z,100198.44
2023-12-02T09:28:23.636Z,100194.97
2023-12-02T09:31:07.639Z,100184.56
2023-12-02T09:33:37.934Z,100193.22
2023-12-02T09:36:08.764Z,100208.75
2023-12-02T09:38:36.063Z,100194.03
2023-12-02T09:41:50.310Z,100194.91
2023-12-02T09:44:28.180Z,100197.56
2023-12-02T09:47:08.602Z,100195.81
2023-12-02T09:49:52.340Z,100182.00
2023-12-02T09:52:30.182Z,100192.25
2023-12-02T09:55:15.573Z,100188.81
2023-12-02T09:57:57.900Z,100202.59
2023-12-02T10:00:45.341Z,100211.25
2023-12-02T10:03:41.428Z,100212.97
2023-12-02T10:06:46.541Z,100206.88
2023-12-02T10:09:32.503Z,100214.69
2023-12-02T10:12:25.822Z,100216.34
2023-12-02T10:15:07.246Z,100216.16
2023-12-02T10:18:00.734Z,100229.06
2023-12-02T10:20:44.706Z,100222.09
2023-12-02T10:23:20.915Z,100219.56
2023-12-02T10:26:01.599Z,100210.97
2023-12-02T10:28:38.480Z,100212.81
2023-12-02T10:31:07.272Z,100203.34
2023-12-02T10:33:58.659Z,100197.28
2023-12-02T10:36:28.594Z,100194.72
2023-12-02T10:39:13.242Z,100197.34
2023-12-02T10:41:50.726Z,100188.78
2023-12-02T10:44:23.311Z,100190.53
2023-12-02T10:46:50.846Z,100176.69
2023-12-02T10:49:18.695Z,100182.59
2023-12-02T10:51:46.305Z,100171.38
2023-12-02T10:54:16.759Z,100181.66
2023-12-02T10:56:47.332Z,100178.31
2023-12-02T10:59:18.550Z,100185.31
2023-12-02T11:01:48.063Z,100182.72
2023-12-02T11:04:18.853Z,100176.75
2023-12-02T11:06:55.346Z,100176.75
2023-12-02T11:09:39.150Z,100170.72
2023-12-02T11:12:24.608Z,100175.84
2023-12-02T11:15:05.061Z,100176.63
2023-12-02T11:17:42.416Z,100169.69
2023-12-02T11:20:20.102Z,100181.75
2023-12-02T11:23:00.646Z,100167.00
2023-12-02T11:25:55.359Z,100180.16
2023-12-02T11:28:41.214Z,100177.47
2023-12-02T11:31:26.606Z,100168.75
2023-12-02T11:34:07.304Z,100162.66
2023-12-02T11:36:47.390Z,100170.28
2023-12-02T11:39:40.824Z,100178.88
2023-12-02T11:42:20.918Z,100183.25
2023-12-02T11:45:14.715Z,100181.56
2023-12-02T11:48:17.495Z,100167.72
2023-12-02T11:50:56.716Z,100166.84
2023-12-02T11:54:01.461Z,100160.84
2023-12-02T11:56:28.789Z,100165.31
2023-12-02T11:59:00.299Z,100165.38
2023-12-02T12:01:45.766Z,100171.38
2023-12-02T12:04:36.356Z,100160.22
2023-12-02T12:07:09.925Z,100155.06
2023-12-02T12:10:00.275Z,100167.06
2023-12-02T12:12:28.535Z,100164.56
2023-12-02T12:14:56.030Z,100160.25
2023-12-02T12:17:24.490Z,100174.84
2023-12-02T12:19:51.885Z,100171.38
2023-12-02T12:22:18.836Z,100171.38
2023-12-02T12:24:45.765Z,100175.63
2023-12-02T12:27:15.374Z,100179.91
2023-12-02T12:29:57.367Z,100187.63
2023-12-02T12:32:24.484Z,100188.44
2023-12-02T12:34:57.855Z,100183.25
2023-12-02T12:37:25.048Z,100184.16
2023-12-02T12:39:52.115Z,100186.72
2023-12-02T12:42:22.521Z,100174.66
2023-12-02T12:44:49.512Z,100179.78
2023-12-02T12:47:16.620Z,100185.81
2023-12-02T12:49:46.680Z,100189.19
2023-12-02T12:55:09.805Z,100197.78
2023-12-02T12:57:59.923Z,100202.09
2023-12-02T13:00:29.778Z,100197.72
2023-12-02T13:03:05.715Z,100202.88
2023-12-02T13:05:42.270Z,100202.06
2023-12-02T13:08:24.416Z,100196.88
2023-12-02T13:10:54.587Z,100202.84
2023-12-02T13:13:22.094Z,100196.78
2023-12-02T13:15:50.779Z,100207.09
2023-12-02T13:18:22.786Z,100201.13
2023-12-02T13:22:11.321Z,100195.91
2023-12-02T13:29:21.627Z,100207.94
2023-12-02T13:35:31.968Z,100218.25
2023-12-02T13:38:21.255Z,100210.44
2023-12-02T13:41:14.993Z,100201.84
2023-12-02T13:43:53.989Z,100202.69
2023-12-02T13:46:28.485Z,100200.97
2023-12-02T13:49:08.150Z,100207.00
2023-12-02T13:51:42.963Z,100204.34
2023-12-02T13:54:38.870Z,100203.44
2023-12-02T13:57:25.494Z,100200.81
2023-12-02T14:00:04.544Z,100205.63
2023-12-02T14:02:48.148Z,100215.25
2023-12-02T14:05:29.968Z,100216.84
2023-12-02T14:08:02.338Z,100214.25
2023-12-02T14:10:30.572Z,100213.59
2023-12-02T14:13:17.328Z,100222.97
2023-12-02T14:16:04.229Z,100232.50
2023-12-02T14:18:52.314Z,100229.91
2023-12-02T14:21:41.205Z,100225.66
2023-12-02T14:24:40.405Z,100236.09
2023-12-02T14:27:26.434Z,100236.00
2023-12-02T14:29:59.009Z,100239.47
2023-12-02T14:33:06.568Z,100250.66
2023-12-02T14:35:48.394Z,100244.72
2023-12-02T14:38:32.389Z,100242.91
2023-12-02T14:41:22.526Z,100243.78
2023-12-02T14:44:12.020Z,100248.16
2023-12-02T14:47:14.676Z,100264.53
2023-12-02T14:49:49.344Z,100259.34
2023-12-02T14:52:20.904Z,100259.38
2023-12-02T14:54:48.260Z,100255.97
2023-12-02T14:57:20.703Z,100255.09
2023-12-02T14:59:54.552Z,100255.09
2023-12-02T15:02:51.212Z,100250.78
2023-12-02T15:05:18.357Z,100266.28
2023-12-02T15:07:47.458Z,100268.84
2023-12-02T15:10:28.718Z,100282.56
2023-12-02T15:13:14.520Z,100290.41
2023-12-02T15:15:43.028Z,100290.44
2023-12-02T15:18:18.205Z,100294.78
2023-12-02T15:20:50.636Z,100300.00
2023-12-02T15:23:17.441Z,100296.56
2023-12-02T15:25:46.904Z,100295.59
2023-12-02T15:28:21.419Z,100304.25
2023-12-02T15:30:48.657Z,100304.16
2023-12-02T15:33:16.961Z,100317.16
2023-12-02T15:35:45.060Z,100318.81
2023-12-02T15:38:12.908Z,100318.84
2023-12-02T15:40:40.577Z,100330.97
2023-12-02T15:43:08.053Z,100331.84
2023-12-02T15:45:36.294Z,100327.59
2023-12-02T15:48:03.446Z,100333.69
2023-12-02T15:50:30.493Z,100331.06
2023-12-02T15:52:57.657Z,100340.59
2023-12-02T15:55:24.946Z,100342.25
2023-12-02T15:57:51.816Z,100339.66
2023-12-02T16:00:18.924Z,100340.50
2023-12-02T16:02:46.631Z,100344.81
2023-12-02T16:05:14.055Z,100339.66
2023-12-02T16:07:42.149Z,100345.69
2023-12-02T16:10:15.562Z,100344.84
2023-12-02T16:12:44.582Z,100351.00
2023-12-02T16:15:11.737Z,100341.94
2023-12-02T16:17:42.791Z,100344.69
2023-12-02T16:21:20.598Z,100333.53
2023-12-02T16:25:27.286Z,100346.25
2023-12-02T16:27:54.676Z,100343.75
2023-12-02T16:30:22.239Z,100362.34
2023-12-02T16:32:49.378Z,100350.34
2023-12-02T16:35:18.299Z,100369.56
2023-12-02T16:37:46.939Z,100368.81
2023-12-02T16:40:13.993Z,100369.72
2023-12-02T16:42:41.359Z,100362.53
2023-12-02T16:45:23.020Z,100366.91
2023-12-02T16:47:53.770Z,100368.75
2023-12-02T16:50:23.567Z,100374.03
2023-12-02T16:53:19.087Z,100372.22
2023-12-02T16:55:48.344Z,100372.31
2023-12-02T16:58:16.324Z,100377.56
2023-12-02T17:00:46.182Z,100379.03
2023-12-02T17:03:37.607Z,100373.91
2023-12-02T17:06:16.159Z,100382.41
2023-12-02T17:08:46.686Z,100379.03
2023-12-02T17:11:15.610Z,100383.41
2023-12-02T17:14:01.349Z,100379.16
2023-12-02T17:16:32.438Z,100393.03
2023-12-02T17:19:00.776Z,100399.94
2023-12-02T17:21:37.958Z,100398.22
2023-12-02T17:24:09.327Z,100393.03
2023-12-02T17:26:36.372Z,100400.00
2023-12-02T17:29:03.343Z,100406.91
2023-12-02T17:31:31.103Z,100415.56
2023-12-02T17:33:58.129Z,100414.69
2023-12-02T17:36:25.178Z,100415.50
2023-12-02T17:38:53.100Z,100406.78
2023-12-02T17:41:20.031Z,100410.28
2023-12-02T17:43:46.955Z,100418.94
2023-12-02T17:46:14.194Z,100421.50
2023-12-02T17:48:41.864Z,100425.00
2023-12-02T17:51:10.662Z,100421.50
2023-12-02T17:53:38.520Z,100411.91
2023-12-02T17:56:06.031Z,100425.81
2023-12-02T17:58:33.042Z,100429.34
2023-12-02T18:01:00.852Z,100431.03
2023-12-02T18:03:27.882Z,100432.78
2023-12-02T18:05:55.950Z,100426.66
2023-12-02T18:08:23.111Z,100424.97
2023-12-02T18:10:51.844Z,100436.16
2023-12-02T18:13:18.857Z,100433.59
2023-12-02T18:15:48.403Z,100428.38
2023-12-02T18:18:15.763Z,100439.69
2023-12-02T18:20:45.220Z,100437.00
2023-12-02T18:23:12.434Z,100431.00
2023-12-02T18:25:39.283Z,100432.63
2023-12-02T18:28:06.142Z,100438.75
2023-12-02T18:30:33.136Z,100440.47
2023-12-02T18:33:00.439Z,100444.84
2023-12-02T18:35:27.504Z,100440.53
2023-12-02T18:37:54.384Z,100437.00
2023-12-02T18:40:23.467Z,100451.72
2023-12-02T18:42:51.018Z,100444.78
2023-12-02T18:45:18.024Z,100450.84
2023-12-02T18:47:45.297Z,100453.38
2023-12-02T18:50:12.277Z,100450.00
2023-12-02T18:52:39.452Z,100447.31
2023-12-02T18:55:06.615Z,100446.41
2023-12-02T18:57:37.216Z,100442.09
2023-12-02T19:00:07.202Z,100446.44
2023-12-02T19:02:34.908Z,100455.91
2023-12-02T19:05:03.987Z,100460.28
2023-12-02T19:07:32.153Z,100459.31
2023-12-02T19:09:59.309Z,100459.38
2023-12-02T19:12:26.234Z,100468.81
2023-12-02T19:14:53.176Z,100467.09
2023-12-02T19:17:20.307Z,100462.78
2023-12-02T19:19:55.042Z,100467.16
2023-12-02T19:22:22.293Z,100476.63
2023-12-02T19:24:52.160Z,100469.78
2023-12-02T19:27:19.188Z,100482.78
2023-12-02T19:29:46.229Z,100488.84
2023-12-02T19:32:13.260Z,100483.69
2023-12-02T19:34:40.663Z,100489.72
2023-12-02T19:37:08.081Z,100488.88
2023-12-02T19:39:40.152Z,100486.28
2023-12-02T19:42:09.264Z,100497.53
2023-12-02T19:44:37.097Z,100501.88
2023-12-02T19:47:06.368Z,100495.75
2023-12-02T19:49:35.037Z,100502.69
2023-12-02T19:52:03.364Z,100506.16
2023-12-02T19:54:34.276Z,100505.94
2023-12-02T19:57:01.263Z,100508.66
2023-12-02T19:59:29.283Z,100512.09
2023-12-02T20:01:56.665Z,100513.84
2023-12-02T20:04:24.120Z,100520.78
2023-12-02T20:06:51.307Z,100525.91
2023-12-02T20:09:19.356Z,100519.94
2023-12-02T20:11:46.731Z,100526.81
2023-12-02T20:14:18.053Z,100538.00
2023-12-02T20:16:45.668Z,100530.22
2023-12-02T20:19:13.779Z,100541.53
2023-12-02T20:21:43.269Z,100551.06
2023-12-02T20:24:12.462Z,100547.56
2023-12-02T20:26:39.723Z,100556.25
2023-12-02T20:29:06.765Z,100556.19
2023-12-02T20:31:33.747Z,100555.31
2023-12-02T20:34:00.683Z,100551.84
2023-12-02T20:36:27.635Z,100558.78
2023-12-02T20:38:54.563Z,100556.19
2023-12-02T20:41:21.606Z,100557.97
2023-12-02T20:43:49.057Z,100552.78
2023-12-02T20:46:16.162Z,100558.81
2023-12-02T20:48:45.247Z,100562.22
2023-12-02T20:51:12.393Z,100563.94
2023-12-02T20:53:40.636Z,100566.56
2023-12-02T20:56:08.369Z,100570.84
2023-12-02T20:58:35.324Z,100573.47
2023-12-02T21:01:04.143Z,100570.81
2023-12-02T21:03:31.332Z,100569.13
2023-12-02T21:05:58.624Z,100567.38
2023-12-02T21:08:28.205Z,100573.44
2023-12-02T21:10:55.326Z,100579.50
2023-12-02T21:13:22.512Z,100578.56
2023-12-02T21:15:49.904Z,100572.50
2023-12-02T21:18:17.055Z,100583.81
2023-12-02T21:20:44.107Z,100575.13
2023-12-02T21:23:11.441Z,100577.72
2023-12-02T21:25:39.917Z,100585.56
2023-12-02T21:28:10.894Z,100585.69
2023-12-02T21:30:39.537Z,100583.72
2023-12-02T21:33:08.383Z,100585.56
2023-12-02T21:35:37.375Z,100578.63
2023-12-02T21:38:06.322Z,100581.28
2023-12-02T21:40:34.714Z,100595.16
2023-12-02T21:46:07.091Z,100607.22
2023-12-02T21:48:41.613Z,100596.81
2023-12-02T21:51:30.548Z,100599.44
2023-12-02T21:54:00.193Z,100604.59
2023-12-02T21:56:27.696Z,100603.78
2023-12-02T21:59:10.044Z,100609.81
2023-12-02T22:01:41.287Z,100610.69
2023-12-02T22:04:12.568Z,100615.06
2023-12-02T22:06:52.861Z,100615.94
2023-12-02T22:09:28.967Z,100617.63
2023-12-02T22:11:57.297Z,100624.63
2023-12-02T22:14:26.138Z,100623.75
2023-12-02T22:17:01.531Z,100629.00
2023-12-02T22:19:29.111Z,100638.50
2023-12-02T22:21:56.573Z,100647.97
2023-12-02T22:24:24.312Z,100645.41
2023-12-02T22:26:51.943Z,100651.50
2023-12-02T22:29:28.505Z,100645.34
2023-12-02T22:31:57.437Z,100645.38
2023-12-02T22:34:24.654Z,100643.69
2023-12-02T22:36:52.998Z,100647.97
2023-12-02T22:39:24.208Z,100656.63
2023-12-02T22:41:53.406Z,100658.38
2023-12-02T22:44:28.617Z,100661.84
2023-12-02T22:46:59.238Z,100652.31
2023-12-02T22:49:36.401Z,100663.47
2023-12-02T22:52:03.855Z,100670.41
2023-12-02T22:54:33.865Z,100671.28
2023-12-02T22:57:02.932Z,100679.97
2023-12-02T22:59:31.440Z,100680.78
2023-12-02T23:01:58.563Z,100672.16
2023-12-02T23:04:44.841Z,100681.69
2023-12-02T23:07:12.036Z,100687.81
2023-12-02T23:09:48.233Z,100691.22
2023-12-02T23:12:33.433Z,100697.31
2023-12-02T23:15:03.678Z,100687.72
2023-12-02T23:17:31.820Z,100685.13
2023-12-02T23:20:04.320Z,100687.69
2023-12-02T23:22:33.157Z,100699.88
2023-12-02T23:25:00.774Z,100684.19
2023-12-02T23:27:44.695Z,100689.44
2023-12-02T23:30:20.682Z,100697.22
2023-12-02T23:32:48.660Z,100698.97
2023-12-02T23:35:22.287Z,100708.50
2023-12-02T23:37:52.493Z,100706.72
2023-12-02T23:40:24.824Z,100700.69
2023-12-02T23:42:52.250Z,100704.13
2023-12-02T23:45:21.080Z,100715.41
2023-12-02T23:47:49.459Z,100708.44
2023-12-02T23:50:19.601Z,100713.69
2023-12-02T23:52:46.958Z,100708.41
2023-12-02T23:55:14.194Z,100717.00
2023-12-02T23:57:46.046Z,100713.53
